createdAt,value
2019-04-14T00:01:36.970Z,98343.08
2019-04-14T00:05:42.920Z,98337.42
2019-04-14T00:09:47.888Z,98331.77
2019-04-14T00:13:52.805Z,98334.72
2019-04-14T00:17:58.874Z,98333.87
2019-04-14T00:22:05.164Z,98334.27
2019-04-14T00:26:27.494Z,98332.94
2019-04-14T00:30:33.544Z,98331.65
2019-04-14T00:34:40.315Z,98331.16
2019-04-14T00:38:47.810Z,98326.47
2019-04-14T00:42:54.392Z,98325.61
2019-04-14T00:47:16.212Z,98322.13
2019-04-14T00:51:22.084Z,98324.37
2019-04-14T00:55:27.172Z,98321.89
2019-04-14T00:59:33.170Z,98327.07
2019-04-14T01:03:39.378Z,98320.58
2019-04-14T01:07:45.494Z,98327.93
2019-04-14T01:11:51.013Z,98319.41
2019-04-14T01:16:03.787Z,98318.23
2019-04-14T01:20:03.626Z,98321.27
2019-04-14T01:24:09.638Z,98311.41
2019-04-14T01:28:15.736Z,98315.77
2019-04-14T01:32:21.824Z,98313.64
2019-04-14T01:36:27.694Z,98322.72
2019-04-14T01:40:33.720Z,98320.15
2019-04-14T01:44:39.576Z,98323.58
2019-04-14T01:48:45.394Z,98321.44
2019-04-14T01:53:07.566Z,98318.88
2019-04-14T01:57:17.585Z,98324.89
2019-04-14T02:01:24.141Z,98326.17
2019-04-14T02:05:29.976Z,98325.34
2019-04-14T02:09:35.765Z,98335.20
2019-04-14T02:13:42.110Z,98336.51
2019-04-14T02:17:48.160Z,98342.95
2019-04-14T02:21:54.124Z,98333.52
2019-04-14T02:26:00.109Z,98342.55
2019-04-14T02:30:10.195Z,98339.52
2019-04-14T02:34:43.791Z,98329.63
2019-04-14T02:42:54.164Z,98328.76
2019-04-14T02:47:09.824Z,98340.36
2019-04-14T02:55:08.520Z,98330.89
2019-04-14T02:59:41.598Z,98338.64
2019-04-14T03:03:33.995Z,98335.20
2019-04-14T03:07:37.907Z,98355.41
2019-04-14T03:11:38.035Z,98340.78
2019-04-14T03:15:48.178Z,98340.34
2019-04-14T03:20:09.422Z,98333.06
2019-04-14T03:24:13.125Z,98338.64
2019-04-14T03:28:37.861Z,98340.78
2019-04-14T03:32:53.185Z,98340.80
2019-04-14T03:44:54.539Z,98329.61
2019-04-14T03:48:58.524Z,98351.11
2019-04-14T03:53:17.513Z,98340.34
2019-04-14T03:56:53.866Z,98335.19
2019-04-14T04:00:59.757Z,98347.68
2019-04-14T04:05:06.459Z,98334.78
2019-04-14T04:09:12.486Z,98352.83
2019-04-14T04:13:17.530Z,98347.68
2019-04-14T04:17:27.587Z,98341.65
2019-04-14T04:21:46.638Z,98342.55
2019-04-14T04:26:10.448Z,98342.95
2019-04-14T04:30:17.075Z,98343.38
2019-04-14T04:34:27.205Z,98355.41
2019-04-14T04:38:37.519Z,98351.09
2019-04-14T04:42:43.646Z,98357.55
2019-04-14T04:46:48.567Z,98360.54
2019-04-14T04:50:54.221Z,98360.55
2019-04-14T04:55:00.265Z,98367.39
2019-04-14T04:59:05.433Z,98382.05
2019-04-14T05:03:10.434Z,98385.94
2019-04-14T05:07:16.551Z,98388.09
2019-04-14T05:11:40.408Z,98388.08
2019-04-14T05:15:46.976Z,98385.95
2019-04-14T05:19:51.993Z,98384.66
2019-04-14T05:23:58.052Z,98396.72
2019-04-14T05:28:03.098Z,98398.03
2019-04-14T05:32:08.813Z,98400.61
2019-04-14T05:36:14.936Z,98413.09
2019-04-14T05:40:20.959Z,98415.70
2019-04-14T05:44:26.068Z,98412.70
2019-04-14T05:48:31.467Z,98419.59
2019-04-14T05:52:36.380Z,98429.48
2019-04-14T05:56:42.499Z,98428.19
2019-04-14T06:00:48.141Z,98435.45
2019-04-14T06:04:53.055Z,98434.56
2019-04-14T06:08:57.971Z,98432.83
2019-04-14T06:13:02.876Z,98431.02
2019-04-14T06:17:07.772Z,98442.34
2019-04-14T06:21:12.698Z,98456.34
2019-04-14T06:25:17.619Z,98455.63
2019-04-14T06:29:22.516Z,98461.05
2019-04-14T06:33:38.275Z,98460.39
2019-04-14T06:37:48.989Z,98450.11
2019-04-14T06:41:53.886Z,98457.20
2019-04-14T06:45:58.796Z,98457.20
2019-04-14T06:50:04.380Z,98451.10
2019-04-14T06:54:09.301Z,98445.73
2019-04-14T06:58:14.207Z,98460.64
2019-04-14T07:02:20.089Z,98450.00
2019-04-14T07:06:25.017Z,98456.25
2019-04-14T07:10:29.926Z,98456.01
2019-04-14T07:14:34.836Z,98451.33
2019-04-14T07:18:39.730Z,98457.20
2019-04-14T07:22:44.648Z,98462.55
2019-04-14T07:26:49.572Z,98451.31
2019-04-14T07:31:05.171Z,98461.69
2019-04-14T07:35:11.726Z,98468.14
2019-04-14T07:39:34.687Z,98462.95
2019-04-14T07:43:57.135Z,98463.81
2019-04-14T07:48:07.195Z,98469.39
2019-04-14T07:52:22.692Z,98467.19
2019-04-14T07:56:39.454Z,98469.35
2019-04-14T08:00:48.466Z,98467.70
2019-04-14T08:04:55.035Z,98464.59
2019-04-14T08:08:59.915Z,98471.90
2019-04-14T08:13:05.397Z,98455.97
2019-04-14T08:17:10.321Z,98456.78
2019-04-14T08:21:15.235Z,98462.11
2019-04-14T08:25:20.246Z,98458.84
2019-04-14T08:29:25.111Z,98457.70
2019-04-14T08:33:30.028Z,98456.56
2019-04-14T08:37:34.941Z,98458.98
2019-04-14T08:41:41.498Z,98459.30
2019-04-14T08:45:53.837Z,98465.25
2019-04-14T08:50:09.964Z,98476.19
2019-04-14T08:54:25.426Z,98469.70
2019-04-14T08:58:31.979Z,98484.80
2019-04-14T09:02:54.964Z,98476.69
2019-04-14T09:07:01.503Z,98477.34
2019-04-14T09:11:08.056Z,98474.80
2019-04-14T09:15:13.009Z,98468.37
2019-04-14T09:19:17.919Z,98464.98
2019-04-14T09:23:22.819Z,98459.52
2019-04-14T09:27:27.733Z,98460.03
2019-04-14T09:31:32.642Z,98460.94
2019-04-14T09:35:37.541Z,98463.30
2019-04-14T09:39:43.521Z,98463.22
2019-04-14T09:43:48.430Z,98464.01
2019-04-14T09:47:53.342Z,98474.13
2019-04-14T09:51:58.269Z,98465.09
2019-04-14T09:56:03.171Z,98457.02
2019-04-14T10:00:08.693Z,98467.80
2019-04-14T10:04:13.614Z,98462.70
2019-04-14T10:08:18.532Z,98459.31
2019-04-14T10:12:23.436Z,98453.20
2019-04-14T10:16:28.344Z,98460.94
2019-04-14T10:20:33.255Z,98462.01
2019-04-14T10:24:38.166Z,98465.61
2019-04-14T10:28:43.076Z,98473.25
2019-04-14T10:32:47.978Z,98467.56
2019-04-14T10:36:53.060Z,98464.71
2019-04-14T10:40:57.954Z,98462.93
2019-04-14T10:45:02.855Z,98460.21
2019-04-14T10:49:07.786Z,98478.09
2019-04-14T10:53:12.694Z,98467.38
2019-04-14T10:57:17.605Z,98466.81
2019-04-14T11:01:22.508Z,98466.43
2019-04-14T11:05:30.132Z,98482.91
2019-04-14T11:09:35.043Z,98468.66
2019-04-14T11:13:39.972Z,98467.39
2019-04-14T11:17:44.854Z,98460.49
2019-04-14T11:21:49.760Z,98462.68
2019-04-14T11:25:54.658Z,98469.21
2019-04-14T11:29:59.556Z,98468.33
2019-04-14T11:34:04.842Z,98466.11
2019-04-14T11:38:14.378Z,98461.42
2019-04-14T11:42:19.358Z,98479.09
2019-04-14T11:46:24.302Z,98472.48
2019-04-14T11:50:29.214Z,98474.82
2019-04-14T11:54:34.125Z,98481.22
2019-04-14T11:58:39.058Z,98467.17
2019-04-14T12:02:54.619Z,98473.96
2019-04-14T12:07:17.694Z,98481.22
2019-04-14T12:11:22.593Z,98488.96
2019-04-14T12:15:27.516Z,98489.83
2019-04-14T12:19:32.433Z,98483.87
2019-04-14T12:23:37.370Z,98488.64
2019-04-14T12:27:42.277Z,98490.63
2019-04-14T12:31:48.607Z,98483.39
2019-04-14T12:35:53.838Z,98490.27
2019-04-14T12:39:58.754Z,98489.08
2019-04-14T12:44:13.808Z,98491.59
2019-04-14T12:48:20.359Z,98505.24
2019-04-14T12:52:26.923Z,98504.98
2019-04-14T12:56:31.860Z,98506.08
2019-04-14T13:00:41.089Z,98500.14
2019-04-14T13:04:46.037Z,98501.73
2019-04-14T13:08:50.946Z,98506.91
2019-04-14T13:12:55.865Z,98501.61
2019-04-14T13:17:00.787Z,98501.20
2019-04-14T13:21:05.854Z,98499.34
2019-04-14T13:25:11.033Z,98499.40
2019-04-14T13:29:16.004Z,98496.71
2019-04-14T13:33:20.919Z,98515.58
2019-04-14T13:37:25.859Z,98502.63
2019-04-14T13:41:30.795Z,98495.17
2019-04-14T13:45:35.723Z,98512.49
2019-04-14T13:49:40.641Z,98514.36
2019-04-14T13:53:45.592Z,98504.72
2019-04-14T13:57:51.586Z,98507.77
2019-04-14T14:01:56.554Z,98509.91
2019-04-14T14:06:01.458Z,98496.38
2019-04-14T14:10:08.097Z,98502.20
2019-04-14T14:14:14.645Z,98492.53
2019-04-14T14:18:26.917Z,98506.37
2019-04-14T14:22:59.273Z,98499.97
2019-04-14T14:27:01.075Z,98498.55
2019-04-14T14:31:06.044Z,98517.39
2019-04-14T14:35:11.103Z,98502.85
2019-04-14T14:39:17.635Z,98510.04
2019-04-14T14:43:22.546Z,98510.52
2019-04-14T14:47:29.089Z,98499.77
2019-04-14T14:51:44.313Z,98500.47
2019-04-14T14:55:49.214Z,98506.05
2019-04-14T14:59:54.110Z,98517.08
2019-04-14T15:03:59.022Z,98500.80
2019-04-14T15:08:04.261Z,98504.16
2019-04-14T15:12:09.187Z,98507.51
2019-04-14T15:16:14.078Z,98498.84
2019-04-14T15:20:20.044Z,98506.20
2019-04-14T15:24:25.000Z,98508.55
2019-04-14T15:28:29.859Z,98517.17
2019-04-14T15:32:34.771Z,98517.69
2019-04-14T15:36:39.683Z,98517.09
2019-04-14T15:40:44.573Z,98522.31
2019-04-14T15:44:49.471Z,98530.45
2019-04-14T15:48:55.677Z,98546.66
2019-04-14T15:53:00.582Z,98551.23
2019-04-14T15:57:07.133Z,98551.05
2019-04-14T16:01:13.664Z,98550.59
2019-04-14T16:05:24.074Z,98556.72
2019-04-14T16:09:36.640Z,98554.57
2019-04-14T16:13:48.678Z,98558.78
2019-04-14T16:17:55.226Z,98555.84
2019-04-14T16:22:00.132Z,98572.84
2019-04-14T16:26:06.741Z,98577.66
2019-04-14T16:30:19.044Z,98575.97
2019-04-14T16:34:28.488Z,98576.06
2019-04-14T16:38:33.400Z,98584.47
2019-04-14T16:42:38.324Z,98584.98
2019-04-14T16:46:43.258Z,98583.42
2019-04-14T16:50:48.295Z,98590.98
2019-04-14T16:54:54.873Z,98591.52
2019-04-14T16:59:01.418Z,98591.52
2019-04-14T17:03:06.493Z,98603.98
2019-04-14T17:07:11.379Z,98606.81
2019-04-14T17:11:16.291Z,98607.83
2019-04-14T17:15:36.004Z,98615.64
2019-04-14T17:19:42.555Z,98620.91
2019-04-14T17:23:57.872Z,98627.03
2019-04-14T17:28:04.417Z,98628.28
2019-04-14T17:32:22.752Z,98643.16
2019-04-14T17:36:41.167Z,98643.73
2019-04-14T17:40:50.384Z,98641.69
2019-04-14T17:45:15.276Z,98649.55
2019-04-14T17:49:27.910Z,98647.83
2019-04-14T17:53:37.384Z,98645.22
2019-04-14T17:57:59.226Z,98665.61
2019-04-14T18:02:14.870Z,98671.72
2019-04-14T18:06:24.351Z,98684.38
2019-04-14T18:10:33.594Z,98678.90
2019-04-14T18:14:40.151Z,98684.20
2019-04-14T18:19:02.693Z,98690.27
2019-04-14T18:23:07.588Z,98695.05
2019-04-14T18:27:12.493Z,98698.95
2019-04-14T18:31:21.970Z,98703.72
2019-04-14T18:35:30.940Z,98702.08
2019-04-14T18:39:50.006Z,98708.10
2019-04-14T18:43:59.747Z,98709.50
2019-04-14T18:48:22.733Z,98709.92
2019-04-14T18:52:35.530Z,98717.73
2019-04-14T18:56:42.076Z,98723.06
2019-04-14T19:00:54.762Z,98720.47
2019-04-14T19:04:59.670Z,98727.49
2019-04-14T19:09:06.707Z,98730.05
2019-04-14T19:13:14.862Z,98735.25
2019-04-14T19:17:30.432Z,98730.48
2019-04-14T19:21:35.292Z,98732.69
2019-04-14T19:25:40.191Z,98736.64
2019-04-14T19:29:45.096Z,98736.72
2019-04-14T19:33:49.994Z,98727.66
2019-04-14T19:37:54.893Z,98730.26
2019-04-14T19:41:59.797Z,98742.42
2019-04-14T19:46:04.764Z,98736.36
2019-04-14T19:50:10.096Z,98741.13
2019-04-14T19:54:14.996Z,98747.19
2019-04-14T19:58:19.887Z,98743.76
2019-04-14T20:02:24.779Z,98753.72
2019-04-14T20:06:29.672Z,98747.69
2019-04-14T20:10:34.664Z,98747.66
2019-04-14T20:14:39.559Z,98770.53
2019-04-14T20:19:10.284Z,98759.34
2019-04-14T20:23:16.269Z,98762.81
2019-04-14T20:27:22.859Z,98762.77
2019-04-14T20:31:38.253Z,98764.97
2019-04-14T20:35:43.148Z,98768.41
2019-04-14T20:39:48.037Z,98781.42
2019-04-14T20:43:52.944Z,98785.32
2019-04-14T20:47:57.838Z,98788.35
2019-04-14T20:52:02.813Z,98787.45
2019-04-14T20:56:07.678Z,98791.38
2019-04-14T21:00:13.112Z,98794.05
2019-04-14T21:04:22.734Z,98802.27
2019-04-14T21:08:44.621Z,98797.54
2019-04-14T21:12:54.307Z,98806.16
2019-04-14T21:17:06.798Z,98802.73
2019-04-14T21:21:28.237Z,98815.28
2019-04-14T21:26:00.259Z,98813.55
2019-04-14T21:30:06.053Z,98814.83
2019-04-14T21:34:12.600Z,98819.18
2019-04-14T21:38:34.242Z,98817.94
2019-04-14T21:42:40.008Z,98814.47
2019-04-14T21:46:44.892Z,98820.53
2019-04-14T21:50:49.788Z,98824.42
2019-04-14T21:54:54.673Z,98833.52
2019-04-14T21:59:03.952Z,98831.38
2019-04-14T22:03:13.213Z,98837.89
2019-04-14T22:07:19.744Z,98837.44
2019-04-14T22:11:25.934Z,98839.17
2019-04-14T22:15:30.851Z,98830.17
2019-04-14T22:19:35.759Z,98838.89
2019-04-14T22:23:40.673Z,98841.52
2019-04-14T22:27:45.637Z,98839.38
2019-04-14T22:31:50.539Z,98841.11
2019-04-14T22:35:56.579Z,98844.14
2019-04-14T22:40:01.572Z,98834.16
2019-04-14T22:44:06.470Z,98822.45
2019-04-14T22:48:11.358Z,98823.34
2019-04-14T22:52:16.256Z,98824.64
2019-04-14T22:56:21.159Z,98829.82
2019-04-14T23:00:27.771Z,98822.48
2019-04-14T23:04:41.572Z,98813.88
2019-04-14T23:08:54.045Z,98816.95
2019-04-14T23:13:12.796Z,98814.78
2019-04-14T23:17:31.105Z,98819.95
2019-04-14T23:21:43.724Z,98819.98
2019-04-14T23:25:48.644Z,98813.06
2019-04-14T23:29:53.556Z,98816.53
2019-04-14T23:33:58.445Z,98814.81
2019-04-14T23:38:03.354Z,98815.67
2019-04-14T23:42:08.258Z,98809.63
2019-04-14T23:46:13.164Z,98817.44
2019-04-14T23:50:18.075Z,98810.98
2019-04-14T23:54:22.977Z,98814.46
2019-04-14T23:58:27.893Z,98806.23
